Time;durP1;ratioP1;P1;durP2;ratioP2;P2;SDS_P1;SDS_P2;PMS_P1;PMS_P2;Temp;Humidity;BMP_temperature;BMP_pressure;BME280_temperature;BME280_humidity;BME280_pressure;Samples;Min_cycle;Max_cycle;Signal;HPM_P1;HPM_P2
2021/11/15 00:01:24;;;;;;;11.68;8.38;;;10.60;82.00;;;;;;5098328;28;20027;-73
2021/11/15 00:03:49;;;;;;;11.77;8.45;;;10.60;82.00;;;;;;5097971;28;20420;-74
2021/11/15 00:06:15;;;;;;;13.50;9.13;;;10.60;82.00;;;;;;5097993;28;20066;-74
2021/11/15 00:08:41;;;;;;;11.27;8.05;;;10.50;82.00;;;;;;5097840;28;20050;-73
2021/11/15 00:11:07;;;;;;;12.15;8.65;;;10.50;82.00;;;;;;5097847;28;20019;-74
2021/11/15 00:13:33;;;;;;;12.43;8.63;;;10.50;82.00;;;;;;5097678;28;20049;-74
2021/11/15 00:15:59;;;;;;;12.75;9.07;;;10.50;82.00;;;;;;5115989;28;20012;-74
2021/11/15 00:18:25;;;;;;;14.57;9.02;;;10.50;82.00;;;;;;5116053;28;20034;-74
2021/11/15 00:20:50;;;;;;;12.88;9.07;;;10.50;82.00;;;;;;5097630;28;20015;-74
2021/11/15 00:26:38;;;;;;;12.45;8.80;;;10.50;82.00;;;;;;5115927;28;20018;-74
2021/11/15 00:29:04;;;;;;;14.15;9.32;;;10.50;82.00;;;;;;5097391;28;20114;-74
2021/11/15 00:31:29;;;;;;;14.13;9.80;;;10.50;81.90;;;;;;5097397;28;20419;-75
2021/11/15 00:33:56;;;;;;;12.63;8.63;;;10.50;81.90;;;;;;5097320;28;20022;-74
2021/11/15 00:36:22;;;;;;;14.18;9.95;;;10.50;81.90;;;;;;5097265;28;20032;-74
2021/11/15 00:38:48;;;;;;;12.70;9.75;;;10.40;81.90;;;;;;5097286;28;20084;-74
2021/11/15 00:41:14;;;;;;;14.32;9.98;;;10.40;81.90;;;;;;5097204;28;20027;-74
2021/11/15 00:43:39;;;;;;;13.93;9.70;;;10.40;81.80;;;;;;5115391;28;20019;-74
2021/11/15 00:46:05;;;;;;;13.70;9.70;;;10.40;82.00;;;;;;5096995;28;20024;-73
2021/11/15 00:48:31;;;;;;;12.10;8.63;;;10.30;81.80;;;;;;5115276;28;20024;-74
2021/11/15 00:50:56;;;;;;;13.90;9.52;;;10.30;81.80;;;;;;5115253;28;20467;-74
2021/11/15 00:53:22;;;;;;;13.30;9.48;;;10.20;81.90;;;;;;5097004;28;20479;-74
2021/11/15 00:55:48;;;;;;;11.88;8.93;;;10.20;82.00;;;;;;5096932;28;20026;-74
2021/11/15 00:58:14;;;;;;;12.38;8.80;;;10.20;82.00;;;;;;5096862;28;20020;-74
2021/11/15 01:00:41;;;;;;;11.68;8.05;;;10.30;82.00;;;;;;5097148;28;20559;-74
2021/11/15 01:03:10;;;;;;;12.57;9.25;;;10.30;81.90;;;;;;5096829;28;20020;-74
2021/11/15 01:05:37;;;;;;;11.50;8.20;;;10.30;81.90;;;;;;5096337;28;20031;-74
2021/11/15 01:08:05;;;;;;;13.73;8.57;;;10.30;81.90;;;;;;5096578;28;20027;-73
2021/11/15 01:10:32;;;;;;;13.10;8.48;;;10.30;82.00;;;;;;5096601;28;20024;-74
2021/11/15 01:12:58;;;;;;;12.10;8.07;;;10.40;82.00;;;;;;5096550;28;20019;-74
2021/11/15 01:15:26;;;;;;;12.38;8.73;;;10.40;81.90;;;;;;5096589;28;20034;-73
2021/11/15 01:17:52;;;;;;;12.20;7.95;;;10.40;81.90;;;;;;5096561;28;20016;-74
2021/11/15 01:20:23;;;;;;;11.88;8.27;;;10.40;81.90;;;;;;5096459;28;20027;-74
2021/11/15 01:22:49;;;;;;;12.98;9.30;;;10.30;81.80;;;;;;5096439;28;20505;-74
2021/11/15 01:25:14;;;;;;;13.10;8.85;;;10.40;81.90;;;;;;5096171;28;20027;-74
2021/11/15 01:27:40;;;;;;;13.60;8.93;;;10.30;81.90;;;;;;5096156;28;20024;-74
2021/11/15 01:30:10;;;;;;;12.52;9.02;;;10.40;81.90;;;;;;5096314;28;20020;-74
2021/11/15 01:32:37;;;;;;;10.13;7.45;;;10.40;81.90;;;;;;5096167;28;20387;-74
2021/11/15 01:35:03;;;;;;;12.50;9.13;;;10.30;81.80;;;;;;5096020;28;20115;-74
2021/11/15 01:37:29;;;;;;;11.80;7.90;;;10.30;81.70;;;;;;5114315;28;20542;-74
2021/11/15 01:39:55;;;;;;;11.63;9.18;;;10.30;81.80;;;;;;5096142;28;20100;-75
2021/11/15 01:42:21;;;;;;;11.65;8.63;;;10.20;81.90;;;;;;5114324;28;20023;-74
2021/11/15 01:44:47;;;;;;;14.55;9.27;;;10.20;82.00;;;;;;5114156;28;20085;-74
2021/11/15 01:47:13;;;;;;;14.27;9.48;;;10.20;81.80;;;;;;5095752;28;20449;-74
2021/11/15 01:49:38;;;;;;;12.52;9.00;;;10.10;81.90;;;;;;5095822;28;20356;-73
2021/11/15 01:52:04;;;;;;;14.25;9.70;;;10.10;82.00;;;;;;5095815;28;20236;-74
2021/11/15 01:54:30;;;;;;;15.35;10.00;;;10.10;82.00;;;;;;5095886;28;20058;-75
2021/11/15 01:56:56;;;;;;;15.48;10.20;;;10.10;82.10;;;;;;5114068;28;20030;-74
2021/11/15 01:59:22;;;;;;;16.55;10.43;;;10.10;82.00;;;;;;5095887;28;20110;-74
2021/11/15 02:01:48;;;;;;;15.07;10.45;;;10.00;82.10;;;;;;5095530;28;20153;-74
2021/11/15 02:04:14;;;;;;;15.52;10.02;;;10.00;82.10;;;;;;5095743;28;20019;-74
2021/11/15 02:06:39;;;;;;;15.80;10.27;;;10.00;82.20;;;;;;5095649;28;20530;-74
2021/11/15 02:09:06;;;;;;;15.63;9.77;;;10.00;82.20;;;;;;5095601;28;20107;-74
2021/11/15 02:11:36;;;;;;;16.10;10.68;;;10.00;82.20;;;;;;5113835;28;20229;-74
2021/11/15 02:14:03;;;;;;;14.93;10.75;;;10.00;82.10;;;;;;5095685;28;20043;-74
2021/11/15 02:16:30;;;;;;;16.15;10.70;;;10.00;82.10;;;;;;5094862;28;20109;-74
2021/11/15 02:18:56;;;;;;;15.02;10.57;;;10.00;82.20;;;;;;5095453;28;20078;-73
2021/11/15 02:21:23;;;;;;;15.70;10.20;;;10.00;82.30;;;;;;5113794;28;20051;-75
2021/11/15 02:23:49;;;;;;;15.93;11.50;;;10.00;82.30;;;;;;5095363;28;20030;-74
2021/11/15 02:26:17;;;;;;;16.95;11.75;;;10.00;82.30;;;;;;5113595;28;20024;-74
2021/11/15 02:28:46;;;;;;;14.98;10.35;;;10.00;82.30;;;;;;5095215;28;20024;-74
2021/11/15 02:31:20;;;;;;;16.15;11.13;;;10.00;82.30;;;;;;5095412;28;20059;-74
2021/11/15 02:33:52;;;;;;;16.08;10.48;;;10.00;82.30;;;;;;5095223;28;20452;-74
2021/11/15 02:36:20;;;;;;;15.50;11.10;;;10.00;82.30;;;;;;5113235;28;20562;-75
2021/11/15 02:38:48;;;;;;;15.20;10.48;;;10.00;82.30;;;;;;5095516;28;20057;-75
2021/11/15 02:41:14;;;;;;;16.35;10.75;;;10.00;82.30;;;;;;5113423;28;20024;-74
2021/11/15 02:43:39;;;;;;;15.95;11.38;;;10.00;82.30;;;;;;5095159;28;20058;-74
2021/11/15 02:46:05;;;;;;;16.20;10.73;;;10.00;82.40;;;;;;5095069;28;20483;-75
2021/11/15 02:51:55;;;;;;;13.05;9.20;;;10.00;82.40;;;;;;5113461;28;20023;-74
2021/11/15 02:54:24;;;;;;;15.77;10.23;;;10.00;82.50;;;;;;5095126;28;20016;-74
2021/11/15 02:56:50;;;;;;;17.55;11.30;;;10.00;82.40;;;;;;5094998;28;20022;-74
2021/11/15 02:59:16;;;;;;;19.20;13.65;;;10.00;82.40;;;;;;5094952;28;20047;-73
2021/11/15 03:01:44;;;;;;;18.38;12.40;;;10.00;82.20;;;;;;5095022;28;20049;-73
2021/11/15 03:04:10;;;;;;;16.15;11.68;;;9.90;82.40;;;;;;5094909;28;20016;-74
2021/11/15 03:06:35;;;;;;;16.42;11.27;;;9.90;82.50;;;;;;5094998;28;20034;-74
2021/11/15 03:09:01;;;;;;;15.95;11.10;;;9.90;82.50;;;;;;5094845;28;20026;-74
2021/11/15 03:11:27;;;;;;;15.15;11.18;;;9.90;82.50;;;;;;5094811;28;20023;-74
2021/11/15 03:13:52;;;;;;;16.80;11.50;;;9.90;82.50;;;;;;5094833;28;20115;-74
2021/11/15 03:16:18;;;;;;;17.20;12.13;;;9.90;82.40;;;;;;5094948;28;20055;-74
2021/11/15 03:18:44;;;;;;;18.60;11.95;;;9.90;82.40;;;;;;5094885;28;20103;-74
2021/11/15 03:21:19;;;;;;;17.08;11.82;;;9.80;82.40;;;;;;5094787;28;20426;-75
2021/11/15 03:23:48;;;;;;;18.05;11.98;;;9.80;82.40;;;;;;5094781;28;20491;-74
2021/11/15 03:26:14;;;;;;;18.00;11.88;;;9.80;82.40;;;;;;5094954;28;20023;-74
2021/11/15 03:28:44;;;;;;;16.33;10.75;;;9.80;82.50;;;;;;5097926;28;20016;-74
2021/11/15 03:31:20;;;;;;;16.70;11.30;;;9.80;82.50;;;;;;5098540;28;20479;-74
2021/11/15 03:33:48;;;;;;;18.33;12.13;;;9.80;82.50;;;;;;5116980;28;20015;-74
2021/11/15 03:36:14;;;;;;;17.60;11.75;;;9.80;82.50;;;;;;5116674;28;20055;-75
2021/11/15 03:38:40;;;;;;;17.67;12.02;;;9.80;82.40;;;;;;5098472;28;20137;-75
2021/11/15 03:41:07;;;;;;;17.25;12.10;;;9.80;82.40;;;;;;5098676;28;20039;-74
2021/11/15 03:43:33;;;;;;;19.98;13.25;;;9.80;82.40;;;;;;5098408;28;20023;-75
2021/11/15 03:45:59;;;;;;;20.55;13.23;;;9.80;82.50;;;;;;5098083;28;20034;-75
2021/11/15 03:48:25;;;;;;;20.90;13.35;;;9.80;82.50;;;;;;5098174;28;20562;-76
2021/11/15 03:50:55;;;;;;;19.23;12.45;;;9.80;82.50;;;;;;5098192;28;20111;-75
2021/11/15 03:53:23;;;;;;;20.23;13.25;;;9.80;82.60;;;;;;5098155;28;20043;-75
2021/11/15 03:55:49;;;;;;;21.92;14.77;;;9.70;82.50;;;;;;5098128;28;20024;-75
2021/11/15 03:58:15;;;;;;;18.80;12.93;;;9.70;82.60;;;;;;5098144;28;20047;-74
2021/11/15 04:00:41;;;;;;;22.35;14.32;;;9.70;82.70;;;;;;5116385;28;20502;-74
2021/11/15 04:03:16;;;;;;;22.80;14.07;;;9.60;82.40;;;;;;5097986;28;20054;-74
2021/11/15 04:05:45;;;;;;;21.80;14.13;;;9.60;82.60;;;;;;5097949;28;20027;-75
2021/11/15 04:08:11;;;;;;;22.30;15.02;;;9.60;82.60;;;;;;5116148;28;20053;-74
2021/11/15 04:10:42;;;;;;;23.08;15.48;;;9.60;82.70;;;;;;5097946;28;20019;-74
2021/11/15 04:13:29;;;;;;;22.10;14.95;;;9.50;82.60;;;;;;5116076;28;20026;-75
2021/11/15 04:15:59;;;;;;;24.10;15.35;;;9.50;82.60;;;;;;5097709;28;20117;-75
2021/11/15 04:18:29;;;;;;;21.65;14.32;;;9.50;82.70;;;;;;5097755;28;20024;-75
2021/11/15 04:20:57;;;;;;;21.90;14.20;;;9.50;82.70;;;;;;5115970;28;20376;-75
2021/11/15 04:23:24;;;;;;;21.50;14.02;;;9.50;82.70;;;;;;5097671;28;20015;-75
2021/11/15 04:25:49;;;;;;;21.13;13.88;;;9.60;82.70;;;;;;5097560;28;20031;-75
2021/11/15 04:28:15;;;;;;;20.92;14.02;;;9.60;82.60;;;;;;5116370;28;20016;-75
2021/11/15 04:30:41;;;;;;;22.08;14.70;;;9.60;82.50;;;;;;5097488;28;20100;-74
2021/11/15 04:33:08;;;;;;;20.92;13.77;;;9.60;82.50;;;;;;5097449;28;20023;-75
2021/11/15 04:35:34;;;;;;;22.23;14.55;;;9.60;82.60;;;;;;5097115;28;20415;-75
2021/11/15 04:38:00;;;;;;;19.30;13.60;;;9.60;82.50;;;;;;5097286;28;20480;-74
2021/11/15 04:40:26;;;;;;;21.88;14.88;;;9.70;82.60;;;;;;5096708;28;20487;-75
2021/11/15 04:42:52;;;;;;;22.08;14.75;;;9.70;82.50;;;;;;5097235;28;20030;-75
2021/11/15 04:45:18;;;;;;;25.58;16.88;;;9.70;82.40;;;;;;5097178;28;20122;-75
2021/11/15 04:47:44;;;;;;;22.10;14.75;;;9.70;82.40;;;;;;5097125;28;20030;-74
2021/11/15 04:50:10;;;;;;;22.27;14.82;;;9.70;82.40;;;;;;5097091;28;20031;-75
2021/11/15 04:52:37;;;;;;;19.55;13.80;;;9.60;82.40;;;;;;5115311;28;20019;-75
2021/11/15 04:55:05;;;;;;;19.08;13.10;;;9.60;82.40;;;;;;5097051;28;20028;-76
2021/11/15 04:57:30;;;;;;;22.52;14.55;;;9.60;82.40;;;;;;5097025;28;20019;-75
2021/11/15 05:00:00;;;;;;;19.38;13.55;;;9.60;82.40;;;;;;5096969;28;20043;-75
2021/11/15 05:02:26;;;;;;;21.35;13.70;;;9.60;82.50;;;;;;5096939;28;20031;-75
2021/11/15 05:04:52;;;;;;;21.38;14.00;;;9.60;82.50;;;;;;5114992;28;20027;-75
2021/11/15 05:07:17;;;;;;;21.35;14.68;;;9.70;82.50;;;;;;5096644;28;20236;-75
2021/11/15 05:09:43;;;;;;;22.02;14.85;;;9.60;82.40;;;;;;5096773;28;20126;-75
2021/11/15 05:12:09;;;;;;;22.50;15.50;;;9.60;82.40;;;;;;5096687;28;20019;-75
2021/11/15 05:14:34;;;;;;;21.15;13.95;;;9.60;82.50;;;;;;5097125;28;20111;-75
2021/11/15 05:17:00;;;;;;;22.98;15.65;;;9.60;82.40;;;;;;5096627;28;20027;-75
2021/11/15 05:19:26;;;;;;;23.65;15.20;;;9.50;82.30;;;;;;5096573;28;20490;-74
2021/11/15 05:21:52;;;;;;;21.88;15.13;;;9.50;82.50;;;;;;5096376;28;20035;-75
2021/11/15 05:24:17;;;;;;;24.52;16.08;;;9.50;82.40;;;;;;5096460;28;20024;-74
2021/11/15 05:26:45;;;;;;;23.67;15.55;;;9.40;82.40;;;;;;5096422;28;20031;-75
2021/11/15 05:29:11;;;;;;;22.20;14.95;;;9.40;82.60;;;;;;5114509;28;20024;-74
2021/11/15 05:31:36;;;;;;;19.92;14.20;;;9.40;82.70;;;;;;5096326;28;20448;-75
2021/11/15 05:34:03;;;;;;;19.70;12.93;;;9.40;82.70;;;;;;5096584;28;20475;-74
2021/11/15 05:36:29;;;;;;;22.27;14.25;;;9.40;82.80;;;;;;5095755;28;20122;-76
2021/11/15 05:38:55;;;;;;;21.73;14.07;;;9.40;82.80;;;;;;5096203;28;20031;-76
2021/11/15 05:41:21;;;;;;;23.00;15.45;;;9.50;82.80;;;;;;5054848;28;20045;-76
2021/11/15 05:43:47;;;;;;;21.75;14.48;;;9.50;82.80;;;;;;5054821;28;20036;-76
2021/11/15 05:46:13;;;;;;;21.63;13.98;;;9.50;82.80;;;;;;5054740;28;20098;-76
2021/11/15 05:48:38;;;;;;;21.60;14.70;;;9.60;82.70;;;;;;5071447;28;20039;-76
2021/11/15 05:51:04;;;;;;;21.10;13.77;;;9.60;82.60;;;;;;5053705;28;20032;-76
2021/11/15 05:53:30;;;;;;;22.85;14.10;;;9.60;82.70;;;;;;5071454;28;20143;-76
2021/11/15 05:55:56;;;;;;;20.70;13.95;;;9.60;82.70;;;;;;5071391;28;20507;-76
2021/11/15 05:58:21;;;;;;;19.30;13.85;;;9.70;82.60;;;;;;5071416;28;20040;-76
2021/11/15 06:00:48;;;;;;;19.33;13.32;;;9.60;82.60;;;;;;5054543;28;20083;-76
2021/11/15 06:03:14;;;;;;;18.90;12.93;;;9.60;82.60;;;;;;5071315;28;20036;-75
2021/11/15 06:09:02;;;;;;;17.55;11.73;;;9.60;82.70;;;;;;5071229;28;20071;-76
2021/11/15 06:11:27;;;;;;;18.92;11.60;;;9.60;82.70;;;;;;5060174;28;20392;-75
2021/11/15 06:13:53;;;;;;;18.15;11.65;;;9.60;82.80;;;;;;5095474;28;20024;-76
2021/11/15 06:16:19;;;;;;;18.95;12.40;;;9.50;82.70;;;;;;5095668;28;20020;-75
2021/11/15 06:18:44;;;;;;;18.23;12.13;;;9.60;82.80;;;;;;5113839;28;20027;-75
2021/11/15 06:21:10;;;;;;;15.88;10.57;;;9.60;82.80;;;;;;5095602;28;20077;-75
2021/11/15 06:23:36;;;;;;;16.58;10.63;;;9.60;82.80;;;;;;5095395;28;20102;-75
2021/11/15 06:26:02;;;;;;;16.30;10.75;;;9.60;82.80;;;;;;5113747;28;20030;-75
2021/11/15 06:28:28;;;;;;;18.63;11.65;;;9.60;82.80;;;;;;5095266;28;20035;-76
2021/11/15 06:30:53;;;;;;;16.52;10.85;;;9.60;82.80;;;;;;5095375;28;20020;-76
2021/11/15 06:33:20;;;;;;;17.17;11.18;;;9.60;83.40;;;;;;5095317;28;20049;-75
2021/11/15 06:35:45;;;;;;;20.45;12.05;;;9.60;82.80;;;;;;5095133;28;20067;-76
2021/11/15 06:38:11;;;;;;;17.98;11.20;;;9.60;82.70;;;;;;5113773;28;20067;-76
2021/11/15 06:40:37;;;;;;;18.10;11.05;;;9.60;82.80;;;;;;5113505;28;20036;-76
2021/11/15 06:43:03;;;;;;;18.00;11.32;;;9.60;82.90;;;;;;5113443;28;20044;-77
2021/11/15 06:45:30;;;;;;;16.73;10.73;;;9.60;82.90;;;;;;5095383;28;20047;-75
2021/11/15 06:47:56;;;;;;;19.25;11.90;;;9.60;82.80;;;;;;5113281;28;20167;-75
2021/11/15 06:50:22;;;;;;;17.15;11.52;;;9.60;82.70;;;;;;5095166;28;20032;-76
2021/11/15 06:52:49;;;;;;;17.48;11.20;;;9.50;82.80;;;;;;5095160;28;20016;-75
2021/11/15 06:55:18;;;;;;;18.73;11.98;;;9.50;83.00;;;;;;5095133;28;20580;-75
2021/11/15 06:57:44;;;;;;;18.13;11.00;;;9.50;82.90;;;;;;5113277;28;20031;-75
2021/11/15 07:00:16;;;;;;;18.52;11.20;;;9.50;83.00;;;;;;5095018;28;20032;-75
2021/11/15 07:02:42;;;;;;;16.20;10.65;;;9.50;83.00;;;;;;5096659;28;20020;-75
2021/11/15 07:05:11;;;;;;;16.90;10.48;;;9.60;83.10;;;;;;5117508;28;20019;-75
2021/11/15 07:07:37;;;;;;;17.80;10.52;;;9.60;83.00;;;;;;5099093;28;20024;-76
2021/11/15 07:10:05;;;;;;;16.70;10.07;;;9.60;83.00;;;;;;5117423;28;20042;-76
2021/11/15 07:12:32;;;;;;;16.10;10.07;;;9.60;83.00;;;;;;5117320;28;20074;-76
2021/11/15 07:14:58;;;;;;;13.77;8.98;;;9.60;83.00;;;;;;5117219;28;20024;-75
2021/11/15 07:17:23;;;;;;;15.70;9.95;;;9.60;83.10;;;;;;5099042;28;20463;-76
2021/11/15 07:19:49;;;;;;;16.90;10.55;;;9.60;83.20;;;;;;5098690;28;20048;-76
2021/11/15 07:22:15;;;;;;;17.60;10.10;;;9.50;83.00;;;;;;5098708;28;20035;-76
2021/11/15 07:24:40;;;;;;;14.82;9.80;;;9.50;83.10;;;;;;5099213;28;20022;-76
2021/11/15 07:27:06;;;;;;;14.55;9.85;;;9.50;83.20;;;;;;5117062;28;20102;-76
2021/11/15 07:29:32;;;;;;;14.98;9.25;;;9.50;83.20;;;;;;5098751;28;20023;-76
2021/11/15 07:31:59;;;;;;;15.15;10.00;;;9.50;83.20;;;;;;5098452;28;20019;-76
2021/11/15 07:34:27;;;;;;;16.88;10.55;;;9.50;83.00;;;;;;5098575;28;20519;-76
2021/11/15 07:36:54;;;;;;;15.10;10.65;;;9.40;83.10;;;;;;5098446;28;20588;-75
2021/11/15 07:39:20;;;;;;;17.02;10.93;;;9.30;83.20;;;;;;5095582;28;20036;-76
2021/11/15 07:41:46;;;;;;;16.15;10.35;;;9.30;83.20;;;;;;5098414;28;20027;-75
2021/11/15 07:44:12;;;;;;;14.98;9.38;;;9.30;83.40;;;;;;5098547;28;20371;-75
2021/11/15 07:46:41;;;;;;;15.07;9.77;;;9.30;83.40;;;;;;5098049;28;20052;-77
2021/11/15 07:52:29;;;;;;;17.05;10.05;;;9.20;83.30;;;;;;5116607;28;20065;-76
2021/11/15 07:54:55;;;;;;;17.10;9.73;;;9.20;83.40;;;;;;5116415;28;20095;-77
2021/11/15 07:57:20;;;;;;;15.20;9.75;;;9.30;83.40;;;;;;5116565;28;20023;-75
2021/11/15 07:59:46;;;;;;;15.73;9.75;;;9.30;83.40;;;;;;5097922;28;20019;-75
2021/11/15 08:02:12;;;;;;;13.23;8.48;;;9.30;83.30;;;;;;5116417;28;20031;-76
2021/11/15 08:04:39;;;;;;;14.63;9.10;;;9.30;83.40;;;;;;5116396;28;20483;-76
2021/11/15 08:07:05;;;;;;;15.57;9.32;;;9.30;83.40;;;;;;5098008;28;20059;-77
2021/11/15 08:09:31;;;;;;;14.23;9.48;;;9.30;83.40;;;;;;5116194;28;20032;-76
2021/11/15 08:12:06;;;;;;;13.02;8.85;;;9.30;83.40;;;;;;5097762;28;20467;-75
2021/11/15 08:14:39;;;;;;;13.13;8.30;;;9.20;83.20;;;;;;5114906;28;20039;-76
2021/11/15 08:17:05;;;;;;;13.57;9.23;;;9.20;83.30;;;;;;5097802;28;20484;-75
2021/11/15 08:19:31;;;;;;;16.00;9.05;;;9.20;83.30;;;;;;5116055;28;20035;-76
2021/11/15 08:21:58;;;;;;;13.38;8.25;;;9.20;83.40;;;;;;5097773;28;20119;-76
2021/11/15 08:24:29;;;;;;;14.15;9.18;;;9.30;83.40;;;;;;5115681;28;20027;-75
2021/11/15 08:27:00;;;;;;;12.80;8.45;;;9.20;83.30;;;;;;5115897;28;20036;-75
2021/11/15 08:29:33;;;;;;;14.10;8.35;;;9.20;83.40;;;;;;5115643;28;20107;-75
2021/11/15 08:32:09;;;;;;;13.52;8.75;;;9.20;83.40;;;;;;5094619;28;20034;-76
2021/11/15 08:34:36;;;;;;;13.82;8.80;;;9.20;83.40;;;;;;5115911;28;20034;-77
2021/11/15 08:37:05;;;;;;;15.02;9.38;;;9.20;83.30;;;;;;5115479;28;20093;-76
2021/11/15 08:39:31;;;;;;;11.95;8.52;;;9.20;83.20;;;;;;5112714;28;20127;-76
2021/11/15 08:42:06;;;;;;;13.52;8.77;;;9.20;83.20;;;;;;5097205;28;20514;-78
2021/11/15 08:44:33;;;;;;;14.98;8.77;;;9.30;83.30;;;;;;5097070;28;20027;-78
2021/11/15 08:47:01;;;;;;;15.25;9.40;;;9.30;83.20;;;;;;5097214;28;20023;-78
2021/11/15 08:49:29;;;;;;;16.23;9.18;;;9.30;83.10;;;;;;5096953;28;20028;-78
2021/11/15 08:51:59;;;;;;;16.50;9.70;;;9.30;83.00;;;;;;5115549;28;20122;-77
2021/11/15 08:57:47;;;;;;;16.25;9.55;;;9.30;83.00;;;;;;5115611;28;20038;-77
2021/11/15 09:03:38;;;;;;;16.67;10.18;;;9.30;83.10;;;;;;5115525;28;20141;-78
2021/11/15 09:06:08;;;;;;;17.92;10.55;;;9.20;83.00;;;;;;5096880;28;20115;-78
2021/11/15 09:08:36;;;;;;;19.77;11.45;;;9.20;83.10;;;;;;5096558;28;20023;-78
2021/11/15 09:11:03;;;;;;;17.58;10.27;;;9.20;83.20;;;;;;5096613;28;20028;-79
2021/11/15 09:13:28;;;;;;;18.63;10.05;;;9.20;83.20;;;;;;5096710;28;20023;-78
2021/11/15 09:15:54;;;;;;;15.40;9.73;;;9.20;83.20;;;;;;5096594;28;20028;-78
2021/11/15 09:18:20;;;;;;;19.63;11.02;;;9.20;83.20;;;;;;5114938;28;20035;-78
2021/11/15 09:20:46;;;;;;;19.00;11.05;;;9.20;83.20;;;;;;5096466;28;20035;-79
2021/11/15 09:23:11;;;;;;;17.15;10.45;;;9.20;83.30;;;;;;5096507;28;20372;-77
2021/11/15 09:25:40;;;;;;;16.55;10.35;;;9.20;83.30;;;;;;5096219;28;20028;-78
2021/11/15 09:29:02;;;;;;;15.50;9.95;;;9.10;83.30;;;;;;5096519;28;20036;-77
2021/11/15 09:35:20;;;;;;;13.75;8.27;;;9.20;83.40;;;;;;5114382;28;20532;-78
2021/11/15 09:37:50;;;;;;;13.70;8.07;;;9.20;83.40;;;;;;5095966;28;20394;-78
2021/11/15 09:40:16;;;;;;;12.60;8.10;;;9.10;83.20;;;;;;5093130;28;20047;-78
2021/11/15 09:46:11;;;;;;;12.40;7.30;;;9.00;83.40;;;;;;5114633;28;20513;-77
2021/11/15 09:48:41;;;;;;;13.23;7.30;;;9.00;83.40;;;;;;5095737;28;20376;-76
2021/11/15 09:51:09;;;;;;;11.57;6.32;;;9.10;83.60;;;;;;5095841;28;20273;-77
2021/11/15 09:53:35;;;;;;;11.63;7.00;;;9.10;83.50;;;;;;5095803;28;20228;-77
2021/11/15 09:56:03;;;;;;;10.85;6.70;;;9.10;83.50;;;;;;5096642;28;20027;-77
2021/11/15 09:58:36;;;;;;;13.45;7.45;;;9.10;83.30;;;;;;5097921;28;20123;-78
2021/11/15 10:04:25;;;;;;;14.60;7.60;;;9.10;83.40;;;;;;5114406;28;20050;-77
2021/11/15 10:06:56;;;;;;;15.05;8.07;;;9.10;83.40;;;;;;5095797;28;20103;-77
2021/11/15 10:09:31;;;;;;;13.60;7.75;;;9.00;83.40;;;;;;5095377;28;20429;-78
2021/11/15 10:11:58;;;;;;;14.85;8.63;;;9.00;83.60;;;;;;5113901;28;20023;-78
2021/11/15 10:14:26;;;;;;;16.08;9.38;;;9.00;83.70;;;;;;5095587;28;20019;-77
2021/11/15 10:17:01;;;;;;;15.20;8.52;;;9.00;83.60;;;;;;5113781;28;20099;-76
2021/11/15 10:19:33;;;;;;;16.10;8.10;;;8.90;83.50;;;;;;5095509;28;20024;-76
2021/11/15 10:22:03;;;;;;;12.60;7.22;;;8.90;83.80;;;;;;5095481;28;20023;-80
2021/11/15 10:28:10;;;;;;;11.80;6.80;;;8.90;83.80;;;;;;5113963;28;20461;-78
2021/11/15 10:30:37;;;;;;;14.02;6.97;;;8.80;83.70;;;;;;5092564;28;20020;-78
2021/11/15 10:36:47;;;;;;;13.38;8.05;;;8.90;83.60;;;;;;5113213;28;20505;-79
2021/11/15 10:39:13;;;;;;;12.65;7.78;;;8.90;83.60;;;;;;5113546;28;20106;-78
2021/11/15 10:41:39;;;;;;;15.00;8.65;;;8.90;83.60;;;;;;5113630;28;20027;-78
2021/11/15 10:44:09;;;;;;;13.85;7.40;;;8.90;83.60;;;;;;5113616;28;20030;-78
2021/11/15 10:46:37;;;;;;;14.90;8.50;;;8.90;83.60;;;;;;5113395;28;20081;-79
2021/11/15 10:49:07;;;;;;;16.40;8.25;;;8.90;83.60;;;;;;5095157;28;20122;-77
2021/11/15 10:51:48;;;;;;;14.82;8.23;;;8.90;83.60;;;;;;5113353;28;20027;-78
2021/11/15 10:57:44;;;;;;;15.50;8.88;;;8.90;83.50;;;;;;5113732;28;20045;-77
2021/11/15 11:00:16;;;;;;;15.40;8.43;;;8.80;83.40;;;;;;5113588;28;20053;-77
2021/11/15 11:03:03;;;;;;;15.90;8.30;;;8.80;83.50;;;;;;5095035;28;20024;-78
2021/11/15 11:05:30;;;;;;;14.48;9.25;;;8.80;83.50;;;;;;5095379;28;20016;-78
2021/11/15 11:11:12;;;;;;;13.20;8.52;;;8.70;83.80;;;;;;5113669;28;20038;-78
2021/11/15 11:13:49;;;;;;;18.88;9.55;;;8.70;83.80;;;;;;5094997;28;20478;-77
2021/11/15 11:16:15;;;;;;;18.60;9.95;;;8.80;83.90;;;;;;5113245;28;20016;-77
2021/11/15 11:26:36;;;;;;;17.10;10.13;;;8.70;83.90;;;;;;5113368;28;20039;-79
2021/11/15 11:32:27;;;;;;;15.85;8.85;;;8.60;84.00;;;;;;5113398;28;20058;-79
2021/11/15 11:34:56;;;;;;;20.55;9.73;;;8.60;84.10;;;;;;5094986;28;20547;-80
2021/11/15 11:37:25;;;;;;;19.48;9.40;;;8.70;84.00;;;;;;5094318;28;20494;-78
2021/11/15 11:43:16;;;;;;;16.13;8.82;;;8.70;84.20;;;;;;5116039;28;20034;-77
2021/11/15 11:45:43;;;;;;;14.18;8.73;;;8.80;84.20;;;;;;5112958;28;20110;-77
2021/11/15 11:48:09;;;;;;;15.85;8.85;;;8.90;84.20;;;;;;5095170;28;20024;-77
2021/11/15 11:50:37;;;;;;;17.38;9.63;;;8.90;84.30;;;;;;5098214;28;20027;-79
2021/11/15 11:53:09;;;;;;;19.73;10.07;;;9.00;84.30;;;;;;5057002;28;20036;-78
2021/11/15 11:59:12;;;;;;;16.00;8.88;;;9.10;84.00;;;;;;5074025;28;20028;-78
2021/11/15 12:01:38;;;;;;;14.43;7.95;;;9.10;83.90;;;;;;5056872;28;20023;-78
2021/11/15 12:04:20;;;;;;;14.60;8.45;;;9.10;83.90;;;;;;5057040;28;20127;-78
2021/11/15 12:06:48;;;;;;;16.35;8.50;;;9.10;83.90;;;;;;5056754;28;20021;-78
2021/11/15 12:09:18;;;;;;;15.00;8.15;;;9.10;83.80;;;;;;5056607;28;20124;-77
2021/11/15 12:15:33;;;;;;;13.35;8.15;;;9.10;83.80;;;;;;5073650;28;20027;-75
2021/11/15 12:18:14;;;;;;;14.55;7.85;;;9.10;83.80;;;;;;5063274;28;20191;-79
2021/11/15 12:24:09;;;;;;;16.35;8.45;;;9.10;83.70;;;;;;5073276;28;20043;-76
2021/11/15 12:30:18;;;;;;;15.13;8.15;;;9.00;83.60;;;;;;5085208;28;20084;-77
2021/11/15 12:32:47;;;;;;;18.58;9.07;;;9.00;83.70;;;;;;5115851;28;20020;-77
2021/11/15 12:35:13;;;;;;;15.85;9.52;;;9.00;83.70;;;;;;5115637;28;20135;-76
2021/11/15 12:37:41;;;;;;;16.70;8.70;;;8.90;83.60;;;;;;5097317;28;20162;-75
2021/11/15 12:40:09;;;;;;;18.73;9.50;;;8.90;83.70;;;;;;5097766;28;20019;-75
2021/11/15 12:42:35;;;;;;;20.15;10.63;;;8.80;83.60;;;;;;5116360;28;20016;-75
2021/11/15 12:45:22;;;;;;;17.48;9.00;;;8.80;83.70;;;;;;5097183;28;20019;-76
2021/11/15 12:47:49;;;;;;;16.20;9.45;;;8.70;83.80;;;;;;5097370;28;20034;-76
2021/11/15 12:50:21;;;;;;;17.23;9.32;;;8.70;83.80;;;;;;5097183;28;20020;-75
2021/11/15 12:52:55;;;;;;;19.27;9.50;;;8.70;84.50;;;;;;5115413;28;20020;-76
2021/11/15 12:55:22;;;;;;;17.35;9.68;;;8.70;83.80;;;;;;5096887;28;20276;-75
2021/11/15 12:57:48;;;;;;;17.98;9.25;;;8.70;83.60;;;;;;5097031;28;20019;-77
2021/11/15 13:00:38;;;;;;;21.05;9.95;;;8.80;83.70;;;;;;5114678;28;20027;-78
2021/11/15 13:03:44;;;;;;;18.23;9.80;;;8.80;83.70;;;;;;5115239;28;20024;-76
2021/11/15 13:06:12;;;;;;;17.98;10.15;;;8.90;83.60;;;;;;5096823;28;20483;-77
2021/11/15 13:11:59;;;;;;;18.45;10.45;;;8.90;83.40;;;;;;5115083;28;20031;-75
2021/11/15 13:14:25;;;;;;;18.17;9.82;;;8.90;83.40;;;;;;5114990;28;20020;-75
2021/11/15 13:17:26;;;;;;;18.65;10.75;;;8.90;83.40;;;;;;5096711;28;20023;-76
2021/11/15 13:19:59;;;;;;;20.02;11.25;;;8.90;83.20;;;;;;5114936;28;20378;-76
2021/11/15 13:22:25;;;;;;;21.42;10.98;;;8.90;83.10;;;;;;5114854;28;20471;-76
2021/11/15 13:24:52;;;;;;;20.73;10.65;;;9.00;83.20;;;;;;5114864;28;20023;-76
2021/11/15 13:27:19;;;;;;;21.33;11.90;;;9.00;83.20;;;;;;5096502;28;20019;-77
2021/11/15 13:29:46;;;;;;;20.27;10.93;;;9.00;83.10;;;;;;5114648;28;20034;-77
2021/11/15 13:32:53;;;;;;;20.02;11.00;;;9.00;82.90;;;;;;5114661;28;20026;-76
2021/11/15 13:35:21;;;;;;;22.05;10.77;;;9.00;82.90;;;;;;5096213;28;20020;-76
2021/11/15 13:41:11;;;;;;;22.33;9.82;;;9.00;82.80;;;;;;5114852;28;20062;-77
2021/11/15 13:43:37;;;;;;;20.35;11.27;;;8.90;82.90;;;;;;5096214;28;20059;-76
2021/11/15 13:46:07;;;;;;;18.98;10.13;;;8.90;82.90;;;;;;5096077;28;20069;-77
2021/11/15 13:48:33;;;;;;;17.38;10.05;;;8.80;83.00;;;;;;5095994;28;20019;-78
2021/11/15 13:50:59;;;;;;;19.02;10.13;;;8.80;83.10;;;;;;5096150;28;20049;-78
2021/11/15 13:53:26;;;;;;;20.77;11.23;;;8.80;83.10;;;;;;5114235;28;20429;-77
2021/11/15 13:55:52;;;;;;;20.63;10.55;;;8.80;82.90;;;;;;5114345;28;20047;-77
2021/11/15 13:58:18;;;;;;;16.50;9.90;;;8.80;82.90;;;;;;5114233;28;20020;-77
2021/11/15 14:00:47;;;;;;;18.80;10.10;;;8.80;83.00;;;;;;5095962;28;20169;-76
2021/11/15 14:06:35;;;;;;;17.80;10.02;;;8.80;82.90;;;;;;5114341;28;20084;-76